createdAt,value
2023-10-23T00:00:30.696Z,100528.44
2023-10-23T00:01:40.971Z,100530.47
2023-10-23T00:02:44.059Z,100530.13
2023-10-23T00:03:47.221Z,100529.47
2023-10-23T00:04:50.533Z,100533.75
2023-10-23T00:05:53.598Z,100534.59
2023-10-23T00:06:56.602Z,100532.44
2023-10-23T00:07:59.591Z,100535.38
2023-10-23T00:09:03.644Z,100535.00
2023-10-23T00:10:07.948Z,100535.53
2023-10-23T00:11:10.927Z,100537.81
2023-10-23T00:12:13.952Z,100532.38
2023-10-23T00:13:16.952Z,100537.34
2023-10-23T00:14:19.947Z,100528.06
2023-10-23T00:15:23.066Z,100531.22
2023-10-23T00:16:26.096Z,100531.72
2023-10-23T00:17:29.162Z,100538.69
2023-10-23T00:18:32.202Z,100539.53
2023-10-23T00:19:35.189Z,100538.97
2023-10-23T00:20:38.236Z,100538.97
2023-10-23T00:21:41.264Z,100539.84
2023-10-23T00:22:44.332Z,100535.69
2023-10-23T00:23:47.366Z,100537.66
2023-10-23T00:24:50.416Z,100531.38
2023-10-23T00:25:53.420Z,100525.44
2023-10-23T00:26:56.414Z,100530.72
2023-10-23T00:27:59.457Z,100533.00
2023-10-23T00:29:03.053Z,100537.47
2023-10-23T00:30:07.224Z,100528.50
2023-10-23T00:31:10.368Z,100525.19
2023-10-23T00:32:13.584Z,100526.00
2023-10-23T00:33:16.764Z,100535.63
2023-10-23T00:34:19.896Z,100531.00
2023-10-23T00:35:22.919Z,100525.19
2023-10-23T00:36:25.957Z,100542.56
2023-10-23T00:37:29.044Z,100537.72
2023-10-23T00:38:32.385Z,100534.91
2023-10-23T00:39:35.443Z,100539.56
2023-10-23T00:40:38.450Z,100533.13
2023-10-23T00:41:43.701Z,100526.81
2023-10-23T00:42:46.760Z,100533.25
2023-10-23T00:43:49.760Z,100530.91
2023-10-23T00:44:53.108Z,100537.84
2023-10-23T00:46:07.340Z,100536.22
2023-10-23T00:47:12.116Z,100534.06
2023-10-23T00:48:15.175Z,100529.94
2023-10-23T00:49:18.880Z,100539.50
2023-10-23T00:50:22.231Z,100527.97
2023-10-23T00:51:25.448Z,100533.25
2023-10-23T00:52:28.638Z,100536.84
2023-10-23T00:53:36.298Z,100532.72
2023-10-23T00:54:41.191Z,100540.81
2023-10-23T00:55:48.309Z,100540.66
2023-10-23T00:56:52.000Z,100540.81
2023-10-23T00:57:55.150Z,100539.78
2023-10-23T00:58:59.182Z,100545.06
2023-10-23T01:00:05.512Z,100538.50
2023-10-23T01:01:13.243Z,100538.00
2023-10-23T01:02:16.767Z,100547.44
2023-10-23T01:03:19.886Z,100550.09
2023-10-23T01:04:23.224Z,100544.97
2023-10-23T01:05:26.303Z,100544.78
2023-10-23T01:06:29.638Z,100540.19
2023-10-23T01:07:32.668Z,100536.03
2023-10-23T01:08:35.778Z,100544.16
2023-10-23T01:09:39.122Z,100535.34
2023-10-23T01:10:42.369Z,100542.47
2023-10-23T01:11:45.384Z,100544.47
2023-10-23T01:12:48.591Z,100541.50
2023-10-23T01:13:51.693Z,100540.97
2023-10-23T01:14:54.689Z,100541.13
2023-10-23T01:15:57.726Z,100539.19
2023-10-23T01:17:00.730Z,100538.63
2023-10-23T01:18:07.064Z,100540.09
2023-10-23T01:19:10.461Z,100544.13
2023-10-23T01:20:15.782Z,100533.38
2023-10-23T01:21:18.842Z,100544.13
2023-10-23T01:22:21.883Z,100539.97
2023-10-23T01:23:28.739Z,100540.88
2023-10-23T01:24:34.469Z,100540.88
2023-10-23T01:25:37.911Z,100546.50
2023-10-23T01:26:40.951Z,100547.72
2023-10-23T01:27:44.427Z,100548.44
2023-10-23T01:28:47.512Z,100537.19
2023-10-23T01:29:50.494Z,100546.63
2023-10-23T01:30:53.521Z,100546.50
2023-10-23T01:31:56.629Z,100543.16
2023-10-23T01:32:59.861Z,100542.03
2023-10-23T01:34:02.859Z,100543.53
2023-10-23T01:35:06.492Z,100544.25
2023-10-23T01:36:09.599Z,100538.97
2023-10-23T01:37:12.604Z,100540.88
2023-10-23T01:38:16.136Z,100545.34
2023-10-23T01:39:19.131Z,100546.50
2023-10-23T01:40:22.141Z,100542.56
2023-10-23T01:41:25.141Z,100540.88
2023-10-23T01:42:29.959Z,100545.06
2023-10-23T01:43:33.018Z,100547.16
2023-10-23T01:44:36.058Z,100549.28
2023-10-23T01:45:39.183Z,100550.09
2023-10-23T01:46:42.255Z,100548.44
2023-10-23T01:47:45.322Z,100554.19
2023-10-23T01:48:49.000Z,100547.41
2023-10-23T01:49:52.181Z,100551.84
2023-10-23T01:50:55.207Z,100551.03
2023-10-23T01:51:58.241Z,100540.47
2023-10-23T01:53:01.271Z,100539.94
2023-10-23T01:54:04.346Z,100541.09
2023-10-23T01:55:07.772Z,100550.00
2023-10-23T01:56:10.800Z,100542.06
2023-10-23T01:57:14.585Z,100557.75
2023-10-23T01:58:17.595Z,100551.50
2023-10-23T01:59:20.612Z,100548.56
2023-10-23T02:00:23.640Z,100545.22
2023-10-23T02:01:27.233Z,100546.06
2023-10-23T02:02:30.344Z,100545.69
2023-10-23T02:03:33.664Z,100541.38
2023-10-23T02:04:39.424Z,100545.69
2023-10-23T02:05:42.644Z,100535.78
2023-10-23T02:06:45.711Z,100539.44
2023-10-23T02:07:48.757Z,100545.00
2023-10-23T02:08:51.780Z,100546.97
2023-10-23T02:09:57.797Z,100551.72
2023-10-23T02:11:00.853Z,100545.31
2023-10-23T02:12:06.178Z,100542.97
2023-10-23T02:13:09.227Z,100545.91
2023-10-23T02:14:13.283Z,100544.28
2023-10-23T02:15:16.301Z,100542.91
2023-10-23T02:16:19.325Z,100549.47
2023-10-23T02:17:22.533Z,100553.09
2023-10-23T02:18:25.648Z,100545.63
2023-10-23T02:19:31.306Z,100543.44
2023-10-23T02:20:34.316Z,100544.13
2023-10-23T02:21:37.540Z,100541.09
2023-10-23T02:22:40.579Z,100536.66
2023-10-23T02:23:55.560Z,100542.75
2023-10-23T02:24:59.865Z,100550.41
2023-10-23T02:26:03.984Z,100549.41
2023-10-23T02:27:07.031Z,100551.06
2023-10-23T02:28:10.136Z,100548.41
2023-10-23T02:29:13.124Z,100551.44
2023-10-23T02:30:16.162Z,100548.78
2023-10-23T02:31:19.242Z,100549.09
2023-10-23T02:32:22.981Z,100556.88
2023-10-23T02:33:26.038Z,100559.34
2023-10-23T02:34:29.199Z,100553.38
2023-10-23T02:35:36.447Z,100553.38
2023-10-23T02:36:39.452Z,100556.88
2023-10-23T02:37:42.441Z,100559.66
2023-10-23T02:38:45.434Z,100554.69
2023-10-23T02:39:48.493Z,100546.06
2023-10-23T02:40:53.022Z,100550.00
2023-10-23T02:41:56.053Z,100552.56
2023-10-23T02:42:59.069Z,100555.34
2023-10-23T02:44:02.182Z,100556.03
2023-10-23T02:45:06.142Z,100552.56
2023-10-23T02:46:09.205Z,100549.78
2023-10-23T02:47:12.267Z,100547.28
2023-10-23T02:48:18.962Z,100553.22
2023-10-23T02:49:21.982Z,100554.09
2023-10-23T02:50:25.014Z,100556.88
2023-10-23T02:51:28.102Z,100559.88
2023-10-23T02:52:31.086Z,100555.88
2023-10-23T02:53:34.109Z,100555.59
2023-10-23T02:54:37.292Z,100553.63
2023-10-23T02:55:41.973Z,100560.88
2023-10-23T02:56:45.036Z,100558.38
2023-10-23T02:57:48.186Z,100563.13
2023-10-23T02:58:51.205Z,100552.56
2023-10-23T02:59:56.078Z,100553.69
2023-10-23T03:00:59.110Z,100559.94
2023-10-23T03:02:02.184Z,100559.41
2023-10-23T03:03:05.272Z,100558.44
2023-10-23T03:04:08.469Z,100563.72
2023-10-23T03:05:12.433Z,100553.44
2023-10-23T03:06:15.504Z,100563.72
2023-10-23T03:07:18.536Z,100562.06
2023-10-23T03:08:21.657Z,100567.34
2023-10-23T03:09:25.154Z,100567.88
2023-10-23T03:10:28.158Z,100570.38
2023-10-23T03:11:31.143Z,100568.34
2023-10-23T03:12:34.320Z,100568.63
2023-10-23T03:13:37.624Z,100572.41
2023-10-23T03:14:40.653Z,100576.00
2023-10-23T03:15:44.819Z,100572.91
2023-10-23T03:16:48.442Z,100569.75
2023-10-23T03:17:52.638Z,100568.47
2023-10-23T03:18:55.790Z,100577.69
2023-10-23T03:19:58.875Z,100566.13
2023-10-23T03:21:03.338Z,100574.88
2023-10-23T03:22:06.563Z,100569.91
2023-10-23T03:23:09.722Z,100569.91
2023-10-23T03:24:12.834Z,100569.91
2023-10-23T03:25:16.096Z,100573.81
2023-10-23T03:26:19.151Z,100571.03
2023-10-23T03:27:22.461Z,100571.03
2023-10-23T03:28:25.509Z,100577.28
2023-10-23T03:29:28.512Z,100570.50
2023-10-23T03:30:31.526Z,100569.91
2023-10-23T03:31:34.637Z,100571.84
2023-10-23T03:32:37.709Z,100564.09
2023-10-23T03:33:41.613Z,100579.63
2023-10-23T03:34:45.587Z,100579.09
2023-10-23T03:35:49.242Z,100578.53
2023-10-23T03:36:52.839Z,100579.22
2023-10-23T03:37:55.892Z,100577.88
2023-10-23T03:38:58.892Z,100580.44
2023-10-23T03:40:02.275Z,100576.00
2023-10-23T03:41:05.862Z,100578.72
2023-10-23T03:42:09.599Z,100573.34
2023-10-23T03:43:12.595Z,100572.75
2023-10-23T03:44:15.602Z,100571.47
2023-10-23T03:45:18.598Z,100571.91
2023-10-23T03:46:21.821Z,100569.41
2023-10-23T03:47:24.910Z,100572.84
2023-10-23T03:48:27.936Z,100573.28
2023-10-23T03:49:31.094Z,100582.69
2023-10-23T03:50:38.146Z,100582.41
2023-10-23T03:51:41.161Z,100592.72
2023-10-23T03:52:44.177Z,100587.84
2023-10-23T03:53:47.595Z,100589.06
2023-10-23T03:54:50.717Z,100592.97
2023-10-23T03:55:53.794Z,100587.41
2023-10-23T03:56:56.785Z,100583.78
2023-10-23T03:57:59.819Z,100582.13
2023-10-23T03:59:03.990Z,100585.72
2023-10-23T04:00:07.921Z,100586.03
2023-10-23T04:01:10.979Z,100584.38
2023-10-23T04:02:14.012Z,100581.88
2023-10-23T04:03:16.996Z,100583.00
2023-10-23T04:04:20.048Z,100578.03
2023-10-23T04:05:23.051Z,100583.06
2023-10-23T04:06:26.108Z,100581.56
2023-10-23T04:07:29.125Z,100586.66
2023-10-23T04:08:32.355Z,100576.97
2023-10-23T04:09:35.400Z,100581.25
2023-10-23T04:10:38.406Z,100584.19
2023-10-23T04:11:41.389Z,100588.06
2023-10-23T04:12:44.435Z,100584.28
2023-10-23T04:13:47.742Z,100592.50
2023-10-23T04:14:51.163Z,100587.88
2023-10-23T04:16:00.291Z,100597.19
2023-10-23T04:17:03.998Z,100592.50
2023-10-23T04:18:07.014Z,100592.50
2023-10-23T04:19:10.040Z,100599.44
2023-10-23T04:20:13.030Z,100597.47
2023-10-23T04:21:16.063Z,100599.56
2023-10-23T04:22:19.060Z,100598.06
2023-10-23T04:23:22.053Z,100605.00
2023-10-23T04:24:25.081Z,100596.69
2023-10-23T04:25:28.092Z,100598.63
2023-10-23T04:26:31.077Z,100607.25
2023-10-23T04:27:34.154Z,100608.06
2023-10-23T04:28:38.172Z,100615.56
2023-10-23T04:29:41.367Z,100609.47
2023-10-23T04:30:44.391Z,100613.75
2023-10-23T04:31:47.502Z,100613.63
2023-10-23T04:32:50.539Z,100614.56
2023-10-23T04:33:53.548Z,100621.66
2023-10-23T04:34:56.733Z,100606.94
2023-10-23T04:36:00.662Z,100616.69
2023-10-23T04:37:04.462Z,100614.56
2023-10-23T04:38:07.494Z,100607.34
2023-10-23T04:39:10.490Z,100612.91
2023-10-23T04:40:14.121Z,100613.91
2023-10-23T04:41:17.113Z,100613.22
2023-10-23T04:42:20.126Z,100620.44
2023-10-23T04:43:23.794Z,100610.88
2023-10-23T04:44:26.870Z,100618.78
2023-10-23T04:45:29.954Z,100614.19
2023-10-23T04:46:33.153Z,100611.41
2023-10-23T04:47:36.289Z,100619.84
2023-10-23T04:48:39.359Z,100614.88
2023-10-23T04:49:42.416Z,100615.25
2023-10-23T04:50:45.419Z,100614.28
2023-10-23T04:51:48.510Z,100619.56
2023-10-23T04:52:51.549Z,100625.53
2023-10-23T04:53:54.527Z,100623.56
2023-10-23T04:54:57.532Z,100626.22
2023-10-23T04:56:00.795Z,100620.94
2023-10-23T04:57:04.392Z,100627.72
2023-10-23T04:58:08.938Z,100625.09
2023-10-23T04:59:12.040Z,100626.63
2023-10-23T05:00:15.840Z,100627.19
2023-10-23T05:01:19.635Z,100632.47
2023-10-23T05:02:22.682Z,100627.19
2023-10-23T05:03:25.753Z,100624.41
2023-10-23T05:04:34.724Z,100624.09
2023-10-23T05:05:37.773Z,100626.44
2023-10-23T05:06:40.818Z,100625.63
2023-10-23T05:07:43.855Z,100621.34
2023-10-23T05:08:46.860Z,100620.66
2023-10-23T05:09:49.891Z,100617.00
2023-10-23T05:10:52.931Z,100625.78
2023-10-23T05:11:56.169Z,100631.88
2023-10-23T05:12:59.380Z,100629.81
2023-10-23T05:14:02.407Z,100619.41
2023-10-23T05:15:06.675Z,100626.13
2023-10-23T05:16:09.790Z,100627.94
2023-10-23T05:17:14.189Z,100628.31
2023-10-23T05:18:17.188Z,100629.16
2023-10-23T05:19:20.178Z,100628.84
2023-10-23T05:20:23.309Z,100632.47
2023-10-23T05:21:26.336Z,100637.59
2023-10-23T05:22:29.365Z,100633.84
2023-10-23T05:23:32.673Z,100630.22
2023-10-23T05:24:35.693Z,100629.91
2023-10-23T05:25:38.740Z,100633.13
2023-10-23T05:26:41.751Z,100632.94
2023-10-23T05:27:44.863Z,100637.69
2023-10-23T05:28:48.019Z,100629.91
2023-10-23T05:29:51.551Z,100638.09
2023-10-23T05:30:55.128Z,100633.94
2023-10-23T05:31:58.181Z,100641.56
2023-10-23T05:33:01.274Z,100639.81
2023-10-23T05:34:04.927Z,100635.19
2023-10-23T05:35:08.380Z,100638.53
2023-10-23T05:36:11.405Z,100638.63
2023-10-23T05:37:14.526Z,100639.00
2023-10-23T05:38:17.513Z,100633.72
2023-10-23T05:39:20.505Z,100642.03
2023-10-23T05:40:23.592Z,100644.69
2023-10-23T05:41:26.569Z,100650.66
2023-10-23T05:42:29.620Z,100654.25
2023-10-23T05:43:32.671Z,100655.84
2023-10-23T05:44:35.656Z,100654.63
2023-10-23T05:45:38.765Z,100651.72
2023-10-23T05:46:41.884Z,100658.59
2023-10-23T05:47:44.960Z,100663.88
2023-10-23T05:48:48.191Z,100663.56
2023-10-23T05:49:51.190Z,100651.03
2023-10-23T05:51:05.942Z,100664.91
2023-10-23T05:52:09.176Z,100653.41
2023-10-23T05:53:12.180Z,100653.25
2023-10-23T05:54:17.974Z,100658.53
2023-10-23T05:55:22.119Z,100656.03
2023-10-23T05:56:25.193Z,100665.91
2023-10-23T05:57:28.194Z,100667.25
2023-10-23T05:58:35.111Z,100664.31
2023-10-23T05:59:38.479Z,100665.72
2023-10-23T06:00:41.727Z,100665.28
2023-10-23T06:01:44.783Z,100661.22
2023-10-23T06:02:47.783Z,100662.03
2023-10-23T06:03:50.855Z,100664.09
2023-10-23T06:04:53.963Z,100663.69
2023-10-23T06:05:56.975Z,100669.50
2023-10-23T06:07:01.455Z,100667.16
2023-10-23T06:08:04.552Z,100660.66
2023-10-23T06:09:07.537Z,100670.56
2023-10-23T06:10:11.066Z,100671.38
2023-10-23T06:11:14.547Z,100670.09
2023-10-23T06:12:17.547Z,100671.63
2023-10-23T06:13:22.144Z,100673.13
2023-10-23T06:14:26.005Z,100678.22
2023-10-23T06:15:28.995Z,100678.59
2023-10-23T06:16:32.095Z,100680.13
2023-10-23T06:17:35.173Z,100680.66
2023-10-23T06:18:39.737Z,100683.38
2023-10-23T06:19:42.733Z,100683.25
2023-10-23T06:20:46.189Z,100681.56
2023-10-23T06:21:49.188Z,100678.47
2023-10-23T06:22:52.215Z,100686.28
2023-10-23T06:23:55.217Z,100687.09
2023-10-23T06:24:58.218Z,100692.75
2023-10-23T06:26:01.267Z,100693.41
2023-10-23T06:27:05.091Z,100700.09
2023-10-23T06:28:08.684Z,100693.66
2023-10-23T06:29:11.661Z,100699.06
2023-10-23T06:30:14.960Z,100698.59
2023-10-23T06:31:17.994Z,100702.69
2023-10-23T06:32:21.013Z,100701.75
2023-10-23T06:33:24.505Z,100710.53
2023-10-23T06:34:27.596Z,100706.06
2023-10-23T06:35:30.784Z,100710.38
2023-10-23T06:36:33.816Z,100710.06
2023-10-23T06:37:36.853Z,100703.66
2023-10-23T06:38:40.278Z,100706.13
2023-10-23T06:39:43.272Z,100706.81
2023-10-23T06:40:47.034Z,100700.91
2023-10-23T06:41:52.789Z,100710.22
2023-10-23T06:42:55.810Z,100702.97
2023-10-23T06:43:58.783Z,100710.91
2023-10-23T06:45:02.042Z,100694.09
2023-10-23T06:46:05.100Z,100689.97
2023-10-23T06:47:08.376Z,100693.50
2023-10-23T06:48:11.685Z,100698.91
2023-10-23T06:49:14.746Z,100689.03
2023-10-23T06:50:18.607Z,100689.72
2023-10-23T06:51:21.653Z,100693.09
2023-10-23T06:52:24.686Z,100686.84
2023-10-23T06:53:27.701Z,100682.97
2023-10-23T06:54:31.102Z,100672.34
2023-10-23T06:55:34.100Z,100673.19
2023-10-23T06:56:37.132Z,100678.22
2023-10-23T06:57:40.130Z,100676.91
2023-10-23T06:58:43.155Z,100670.31
2023-10-23T06:59:46.169Z,100671.31
2023-10-23T07:00:49.830Z,100671.13
2023-10-23T07:01:52.989Z,100671.63
2023-10-23T07:02:56.181Z,100676.75
2023-10-23T07:03:59.253Z,100672.53
2023-10-23T07:05:02.841Z,100676.47
2023-10-23T07:06:07.766Z,100675.50
2023-10-23T07:07:21.770Z,100680.47
2023-10-23T07:08:29.831Z,100680.34
2023-10-23T07:09:32.836Z,100683.16
2023-10-23T07:10:37.239Z,100685.44
2023-10-23T07:11:40.349Z,100685.50
2023-10-23T07:12:43.356Z,100686.91
2023-10-23T07:13:46.423Z,100685.47
2023-10-23T07:14:49.534Z,100684.13
2023-10-23T07:15:52.741Z,100684.56
2023-10-23T07:16:55.880Z,100682.63
2023-10-23T07:17:59.007Z,100686.44
2023-10-23T07:19:06.209Z,100691.78
2023-10-23T07:20:09.318Z,100683.25
2023-10-23T07:21:13.638Z,100688.03
2023-10-23T07:22:18.997Z,100690.22
2023-10-23T07:23:23.425Z,100689.53
2023-10-23T07:24:26.394Z,100678.53
2023-10-23T07:25:29.566Z,100679.97
2023-10-23T07:26:32.638Z,100684.72
2023-10-23T07:27:35.629Z,100675.31
2023-10-23T07:28:41.949Z,100681.97
2023-10-23T07:29:45.287Z,100681.13
2023-10-23T07:30:48.328Z,100678.16
2023-10-23T07:31:51.306Z,100678.22
2023-10-23T07:32:54.381Z,100684.97
2023-10-23T07:33:58.959Z,100678.63
2023-10-23T07:35:02.832Z,100676.72
2023-10-23T07:36:08.675Z,100682.41
2023-10-23T07:37:13.529Z,100687.91
2023-10-23T07:38:17.437Z,100687.09
2023-10-23T07:39:21.727Z,100691.22
2023-10-23T07:40:24.725Z,100688.63
2023-10-23T07:41:27.770Z,100696.06
2023-10-23T07:42:30.762Z,100690.31
2023-10-23T07:43:33.950Z,100694.66
2023-10-23T07:44:36.956Z,100693.75
2023-10-23T07:45:41.038Z,100697.16
2023-10-23T07:46:45.332Z,100697.69
2023-10-23T07:47:49.905Z,100702.19
2023-10-23T07:48:52.987Z,100697.16
2023-10-23T07:49:56.283Z,100704.13
2023-10-23T07:51:00.894Z,100698.56
2023-10-23T07:52:05.204Z,100698.50
2023-10-23T07:53:08.812Z,100696.06
2023-10-23T07:54:11.932Z,100695.19
2023-10-23T07:55:14.999Z,100701.63
2023-10-23T07:56:18.009Z,100700.19
2023-10-23T07:57:20.985Z,100700.59
2023-10-23T07:58:23.957Z,100703.41
2023-10-23T07:59:27.514Z,100705.34
2023-10-23T08:00:30.503Z,100695.78
2023-10-23T08:01:33.686Z,100692.63
2023-10-23T08:02:36.838Z,100700.56
2023-10-23T08:03:40.850Z,100687.19
2023-10-23T08:04:44.024Z,100693.63
2023-10-23T08:05:47.902Z,100689.06
2023-10-23T08:06:50.927Z,100693.06
2023-10-23T08:07:54.038Z,100698.19
2023-10-23T08:08:57.055Z,100685.19
2023-10-23T08:10:00.210Z,100690.59
2023-10-23T08:11:05.244Z,100692.47
2023-10-23T08:12:08.756Z,100697.69
2023-10-23T08:13:11.891Z,100696.09
2023-10-23T08:14:14.896Z,100687.44
2023-10-23T08:15:17.894Z,100690.13
2023-10-23T08:16:21.059Z,100690.75
2023-10-23T08:17:41.291Z,100694.06
2023-10-23T08:18:45.465Z,100687.06
2023-10-23T08:19:48.664Z,100688.25
2023-10-23T08:20:51.915Z,100689.28
2023-10-23T08:21:54.915Z,100684.34
2023-10-23T08:22:57.923Z,100686.38
2023-10-23T08:24:00.979Z,100692.13
2023-10-23T08:25:04.393Z,100689.94
2023-10-23T08:26:07.476Z,100693.25
2023-10-23T08:27:10.528Z,100687.31
2023-10-23T08:28:13.577Z,100689.19
2023-10-23T08:29:17.105Z,100692.88
2023-10-23T08:30:20.300Z,100683.06
2023-10-23T08:31:34.985Z,100685.09
2023-10-23T08:32:52.440Z,100683.41
2023-10-23T08:33:56.344Z,100674.97
2023-10-23T08:34:59.366Z,100682.03
2023-10-23T08:36:02.353Z,100680.78
2023-10-23T08:37:05.374Z,100682.47
2023-10-23T08:38:08.397Z,100687.38
2023-10-23T08:39:11.968Z,100681.19
2023-10-23T08:40:15.099Z,100685.09
2023-10-23T08:41:18.194Z,100682.63
2023-10-23T08:42:22.566Z,100682.03
2023-10-23T08:43:25.814Z,100685.53
2023-10-23T08:44:28.994Z,100673.34
2023-10-23T08:45:32.011Z,100676.25
2023-10-23T08:46:35.434Z,100678.97
2023-10-23T08:47:38.492Z,100678.13
2023-10-23T08:48:41.571Z,100676.91
2023-10-23T08:49:44.693Z,100671.56
2023-10-23T08:50:48.233Z,100662.50
2023-10-23T08:51:52.050Z,100660.41
2023-10-23T08:53:01.076Z,100665.56
2023-10-23T08:54:19.126Z,100660.81
2023-10-23T08:55:25.298Z,100664.13
2023-10-23T08:56:29.501Z,100665.56
2023-10-23T08:57:33.708Z,100668.44
2023-10-23T08:58:38.727Z,100662.50
2023-10-23T08:59:43.312Z,100663.28
2023-10-23T09:00:47.412Z,100659.97
2023-10-23T09:01:51.360Z,100672.25
2023-10-23T09:03:00.006Z,100666.63
2023-10-23T09:04:05.978Z,100676.44
2023-10-23T09:05:09.927Z,100674.16
2023-10-23T09:06:19.350Z,100675.81
2023-10-23T09:07:22.406Z,100679.09
2023-10-23T09:08:28.736Z,100677.88
2023-10-23T09:09:32.127Z,100673.00
2023-10-23T09:11:02.501Z,100674.91
2023-10-23T09:12:07.375Z,100678.88
2023-10-23T09:13:38.956Z,100685.53
2023-10-23T09:14:44.193Z,100675.44
2023-10-23T09:15:53.161Z,100680.19
2023-10-23T09:17:00.514Z,100683.06
2023-10-23T09:18:04.665Z,100692.53
2023-10-23T09:19:07.675Z,100690.28
2023-10-23T09:20:28.227Z,100678.97
2023-10-23T09:21:34.738Z,100682.47
2023-10-23T09:22:38.137Z,100684.94
2023-10-23T09:23:56.027Z,100691.53
2023-10-23T09:25:01.434Z,100683.91
2023-10-23T09:26:05.093Z,100684.72
2023-10-23T09:27:08.242Z,100678.13
2023-10-23T09:28:12.520Z,100678.28
2023-10-23T09:29:15.501Z,100680.09
2023-10-23T09:30:22.989Z,100681.72
2023-10-23T09:31:26.127Z,100685.44
2023-10-23T09:32:29.502Z,100678.91
2023-10-23T09:33:34.157Z,100671.91
2023-10-23T09:34:43.377Z,100673.78
2023-10-23T09:35:47.588Z,100668.22
2023-10-23T09:36:52.157Z,100671.09
2023-10-23T09:37:56.928Z,100667.81
2023-10-23T09:39:01.728Z,100665.38
2023-10-23T09:40:17.591Z,100671.56
2023-10-23T09:41:20.589Z,100662.50
2023-10-23T09:42:35.839Z,100667.41
2023-10-23T09:43:49.065Z,100660.00
2023-10-23T09:44:54.893Z,100658.56
2023-10-23T09:46:00.486Z,100656.50
2023-10-23T09:47:07.067Z,100663.72
2023-10-23T09:48:12.604Z,100655.88
2023-10-23T09:49:17.881Z,100660.63
2023-10-23T09:50:21.914Z,100665.59
2023-10-23T09:51:31.447Z,100655.69
2023-10-23T09:52:37.620Z,100656.09
2023-10-23T09:53:40.842Z,100664.31
2023-10-23T09:54:47.200Z,100665.38
2023-10-23T09:55:56.270Z,100665.34
2023-10-23T09:57:06.943Z,100666.78
2023-10-23T09:58:18.035Z,100663.50
2023-10-23T09:59:29.786Z,100661.00
2023-10-23T10:00:35.418Z,100663.91
2023-10-23T10:01:43.432Z,100662.44
2023-10-23T10:03:00.645Z,100658.34
2023-10-23T10:04:17.703Z,100652.97
2023-10-23T10:05:35.158Z,100649.91
2023-10-23T10:06:43.824Z,100654.63
2023-10-23T10:08:05.391Z,100650.09
2023-10-23T10:09:13.645Z,100655.84
2023-10-23T10:10:17.998Z,100651.53
2023-10-23T10:11:21.377Z,100651.34
2023-10-23T10:12:28.041Z,100652.19
2023-10-23T10:13:33.357Z,100639.84
2023-10-23T10:14:37.515Z,100636.13
2023-10-23T10:15:41.456Z,100638.19
2023-10-23T10:16:45.754Z,100641.25
2023-10-23T10:17:51.066Z,100636.53
2023-10-23T10:18:54.666Z,100645.81
2023-10-23T10:20:03.479Z,100644.97
2023-10-23T10:21:12.316Z,100643.31
2023-10-23T10:22:26.952Z,100642.09
2023-10-23T10:23:31.005Z,100639.19
2023-10-23T10:24:36.408Z,100648.47
2023-10-23T10:25:42.644Z,100638.97
2023-10-23T10:26:46.389Z,100646.84
2023-10-23T10:28:05.756Z,100635.28
2023-10-23T10:29:10.927Z,100636.94
2023-10-23T10:30:43.274Z,100631.59
2023-10-23T10:32:13.801Z,100623.56
2023-10-23T10:34:24.957Z,100625.63
2023-10-23T10:34:56.583Z,100628.72
2023-10-23T10:36:04.472Z,100621.28
2023-10-23T10:37:19.385Z,100620.06
2023-10-23T10:38:33.237Z,100617.16
2023-10-23T10:39:49.299Z,100608.31
2023-10-23T10:41:15.586Z,100616.34
2023-10-23T10:42:20.701Z,100618.78
2023-10-23T10:43:32.425Z,100613.44
2023-10-23T10:44:52.790Z,100617.16
2023-10-23T10:45:56.774Z,100619.63
2023-10-23T10:48:04.189Z,100616.75
2023-10-23T10:49:07.336Z,100614.69
2023-10-23T10:50:13.914Z,100618.41
2023-10-23T10:51:19.176Z,100615.94
2023-10-23T10:52:29.949Z,100618.41
2023-10-23T10:53:33.027Z,100618.41
2023-10-23T10:54:37.344Z,100619.84
2023-10-23T10:55:40.347Z,100620.06
2023-10-23T10:56:45.372Z,100619.63
2023-10-23T10:57:49.017Z,100621.69
2023-10-23T10:58:51.996Z,100620.03
2023-10-23T11:00:00.360Z,100619.00
2023-10-23T11:01:03.963Z,100617.16
2023-10-23T11:02:09.536Z,100618.81
2023-10-23T11:03:12.590Z,100613.03
2023-10-23T11:04:15.720Z,100617.16
2023-10-23T11:05:18.893Z,100622.09
2023-10-23T11:06:22.006Z,100615.94
2023-10-23T11:07:27.279Z,100621.69
2023-10-23T11:08:30.428Z,100619.63
2023-10-23T11:09:33.433Z,100620.06
2023-10-23T11:10:36.488Z,100617.97
2023-10-23T11:11:41.292Z,100611.41
2023-10-23T11:12:44.487Z,100609.13
2023-10-23T11:13:48.184Z,100610.56
2023-10-23T11:14:51.285Z,100617.16
2023-10-23T11:15:56.577Z,100615.09
2023-10-23T11:17:00.104Z,100614.50
2023-10-23T11:18:03.798Z,100615.28
2023-10-23T11:19:06.958Z,100601.09
2023-10-23T11:20:12.713Z,100611.59
2023-10-23T11:21:23.222Z,100611.19
2023-10-23T11:22:27.421Z,100601.69
2023-10-23T11:23:33.532Z,100612.84
2023-10-23T11:24:36.557Z,100605.00
2023-10-23T11:25:39.540Z,100608.09
2023-10-23T11:26:42.510Z,100606.25
2023-10-23T11:27:47.632Z,100599.44
2023-10-23T11:28:50.609Z,100598.63
2023-10-23T11:29:53.606Z,100602.72
2023-10-23T11:30:59.450Z,100597.38
2023-10-23T11:32:02.497Z,100595.53
2023-10-23T11:33:09.215Z,100590.75
2023-10-23T11:34:12.265Z,100593.25
2023-10-23T11:35:15.326Z,100583.75
2023-10-23T11:36:19.816Z,100579.88
2023-10-23T11:37:22.816Z,100573.06
2023-10-23T11:38:25.852Z,100571.41
2023-10-23T11:39:34.067Z,100574.31
2023-10-23T11:40:38.102Z,100575.53
2023-10-23T11:41:41.684Z,100572.44
2023-10-23T11:42:48.608Z,100573.06
2023-10-23T11:44:01.396Z,100574.50
2023-10-23T11:45:04.768Z,100581.69
2023-10-23T11:46:08.670Z,100570.16
2023-10-23T11:47:11.909Z,100578.66
2023-10-23T11:48:15.149Z,100573.88
2023-10-23T11:49:22.063Z,100579.84
2023-10-23T11:50:27.204Z,100566.47
2023-10-23T11:51:30.226Z,100561.13
2023-10-23T11:52:34.759Z,100556.97
2023-10-23T11:53:37.730Z,100563.38
2023-10-23T11:54:40.772Z,100554.28
2023-10-23T11:55:46.929Z,100559.25
2023-10-23T11:56:49.908Z,100558.63
2023-10-23T11:57:53.292Z,100556.97
2023-10-23T11:58:57.096Z,100555.72
2023-10-23T12:00:00.199Z,100557.16
2023-10-23T12:01:06.044Z,100549.13
2023-10-23T12:02:09.171Z,100543.38
2023-10-23T12:03:12.210Z,100539.28
2023-10-23T12:04:15.710Z,100537.63
2023-10-23T12:05:23.335Z,100527.31
2023-10-23T12:06:26.351Z,100525.66
2023-10-23T12:07:29.322Z,100525.88
2023-10-23T12:08:32.531Z,100526.28
2023-10-23T12:09:35.549Z,100521.94
2023-10-23T12:10:39.483Z,100525.06
2023-10-23T12:11:42.634Z,100522.38
2023-10-23T12:12:46.880Z,100521.94
2023-10-23T12:13:50.008Z,100523.38
2023-10-23T12:14:54.786Z,100515.97
2023-10-23T12:15:58.410Z,100515.38
2023-10-23T12:17:01.462Z,100516.38